Aérodrome :
LOGIN :

S'inscrire | Disclaimer

   EN    FR    IT 

 










Légende :    VFR   VFR Marginal   IFR   IFR Intensif   IFR Très Intensif
Visi : 
Plafond : 
>= 8 km
>= 3000ft
5 à 8 km
1000 à 3000 ft
1500m à 5 km
500 à 1000 ft
800 à 1500m
200 à 500 ft
< 800m
< 200 ft
Symboles :   Orages  Brouillard  Fortes neiges  Fortes précipitations  Vent > 20 kt
SIGMETs :   Divers  Orages  Givrage  Turbulence  Onde Orograph.  Cendres Volcan.






- Altitude de l'aérodrome : 614 ft
- Code IATA : CRL


EBCI - Charleroi

DERNIER METAR :
  • 281150Z 18009KT 9999 FEW043 16/09 Q1022 NOSIG

METARs EXPIRÉS :
  • 281120Z 16008KT 140V210 9999 FEW043 16/09 Q1022 NOSIG
  • 281050Z 14008KT 120V210 9999 FEW043 15/08 Q1023 NOSIG
  • 281020Z 18008KT 9999 FEW047 15/09 Q1023 NOSIG
  • 280950Z 17006KT 140V200 9999 FEW047 15/09 Q1023 NOSIG
  • 280920Z 17005KT 9999 SCT047 14/09 Q1023 NOSIG

TAF TAF EBCI
Valide du 28 à 12h jusqu'au 29 à 18h UTC


281120Z 2812/2918 17007KT 9999 FEW032
TEMPO 2903/2906 20018G30KT 4000 SHRA BKN014CB
BECMG 2910/2912 27013KT



MET'MAP, la Météo Aéronautique d'un coup d'oeil ! - Copyright ORBIFLY Décembre 2007 - Disclaimer

ORBIFLY MET'MAP TEAM :

Programmation & Développement : Alexandra Zaïnal
Sur une idée originale de : Baudouin d'Aumeries
Assistance à la programmation : Marc-Olivier Méhu
Soutien technique & logistique : Manuel Goepfert

Contact : metmap@orbifly.com




SOURCES & CREDITS :

   NOAA